Mission Woods, Kansas
Current Conditions -  °F | °C
As of 10:54 PM on Tuesday 25 Nov 2014 (Local Time) from KMKC Reporting Station
Overcast Overcast  
Wind Chill: 33°   Ceiling: 9500
Heat Index: 41°   Visibility: 10mi
Dew Point: 20°   Wind: 15mph
Humidity: 43%   Direction: 180°S
Pressure: 30.01"   Gusts: NA
Location:  39.0312°N, 94.6315°W
Report Text: KMKC 260454Z 18013KT 10SM OVC095 05/M07 A3001 RMK AO2 SLP168 T00501067
Loading
Personal Weather Stations






























Interactive Weather Map New forecast layout! Learn more

10-Day Weather Forecast

Advertisements
Track Severe Weather on mobile